createdAt,value
2023-04-01T00:00:24.488Z,9.35
2023-04-01T00:03:30.717Z,9.27
2023-04-01T00:06:33.009Z,9.29
2023-04-01T00:09:36.164Z,9.29
2023-04-01T00:12:38.665Z,9.19
2023-04-01T00:15:41.608Z,9.26
2023-04-01T00:18:43.679Z,9.22
2023-04-01T00:21:46.314Z,9.15
2023-04-01T00:24:48.392Z,8.99
2023-04-01T00:27:51.140Z,9.03
2023-04-01T00:30:53.475Z,9.18
2023-04-01T00:33:57.245Z,8.87
2023-04-01T00:36:59.577Z,8.98
2023-04-01T00:40:02.063Z,9.04
2023-04-01T00:43:04.793Z,9.01
2023-04-01T00:46:07.459Z,9.14
2023-04-01T00:49:10.441Z,9.14
2023-04-01T00:52:14.937Z,8.94
2023-04-01T00:55:17.879Z,8.92
2023-04-01T00:58:22.155Z,8.92
2023-04-01T01:01:25.149Z,8.83
2023-04-01T01:04:27.657Z,8.90
2023-04-01T01:07:54.219Z,9.00
2023-04-01T01:10:57.029Z,8.89
2023-04-01T01:14:15.054Z,9.07
2023-04-01T01:17:24.633Z,9.06
2023-04-01T01:20:45.502Z,9.18
2023-04-01T01:23:51.189Z,9.15
2023-04-01T01:26:53.527Z,9.08
2023-04-01T01:30:08.845Z,9.11
2023-04-01T01:33:17.518Z,9.11
2023-04-01T01:36:22.049Z,9.28
2023-04-01T01:39:29.038Z,9.29
2023-04-01T01:42:32.343Z,9.23
2023-04-01T01:45:36.687Z,9.24
2023-04-01T01:48:41.296Z,9.06
2023-04-01T01:51:44.214Z,9.06
2023-04-01T01:54:48.315Z,9.09
2023-04-01T01:57:51.104Z,9.12
2023-04-01T02:01:02.096Z,9.25
2023-04-01T02:04:05.881Z,9.08
2023-04-01T02:07:09.832Z,9.08
2023-04-01T02:10:12.860Z,8.94
2023-04-01T02:13:22.774Z,9.06
2023-04-01T02:16:45.321Z,9.13
2023-04-01T02:19:56.857Z,9.13
2023-04-01T02:23:00.844Z,9.28
2023-04-01T02:26:06.490Z,9.25
2023-04-01T02:29:10.357Z,9.21
2023-04-01T02:32:14.033Z,9.15
2023-04-01T02:35:17.706Z,9.08
2023-04-01T02:38:19.870Z,8.97
2023-04-01T02:41:22.376Z,8.91
2023-04-01T02:44:24.446Z,8.85
2023-04-01T02:47:26.994Z,8.90
2023-04-01T02:50:29.007Z,8.75
2023-04-01T02:53:31.427Z,8.80
2023-04-01T02:56:33.519Z,8.56
2023-04-01T02:59:36.222Z,8.73
2023-04-01T03:02:39.471Z,8.76
2023-04-01T03:05:42.055Z,8.85
2023-04-01T03:08:44.822Z,8.87
2023-04-01T03:11:47.375Z,8.87
2023-04-01T03:14:49.566Z,8.84
2023-04-01T03:17:52.857Z,8.85
2023-04-01T03:20:55.489Z,8.83
2023-04-01T03:23:57.946Z,8.80
2023-04-01T03:27:01.721Z,8.86
2023-04-01T03:30:05.283Z,8.79
2023-04-01T03:33:09.725Z,8.89
2023-04-01T03:36:13.696Z,8.87
2023-04-01T03:39:19.636Z,8.97
2023-04-01T03:42:22.133Z,8.93
2023-04-01T03:45:24.287Z,8.98
2023-04-01T03:48:27.080Z,8.74
2023-04-01T03:51:31.098Z,8.75
2023-04-01T03:54:33.595Z,8.67
2023-04-01T03:57:36.000Z,8.66
2023-04-01T04:00:39.242Z,8.72
2023-04-01T04:03:42.243Z,8.68
2023-04-01T04:06:44.507Z,8.69
2023-04-01T04:09:47.279Z,8.80
2023-04-01T04:12:50.929Z,8.71
2023-04-01T04:15:53.728Z,8.81
2023-04-01T04:18:56.137Z,8.87
2023-04-01T04:22:01.678Z,8.76
2023-04-01T04:25:04.353Z,8.76
2023-04-01T04:28:06.781Z,8.66
2023-04-01T04:31:10.038Z,8.74
2023-04-01T04:34:12.575Z,8.73
2023-04-01T04:37:14.619Z,8.66
2023-04-01T04:40:17.327Z,8.76
2023-04-01T04:43:19.609Z,8.82
2023-04-01T04:46:22.509Z,8.92
2023-04-01T04:49:25.563Z,9.10
2023-04-01T04:52:28.063Z,9.14
2023-04-01T04:55:31.029Z,9.18
2023-04-01T04:58:39.934Z,9.31
2023-04-01T05:01:42.443Z,9.41
2023-04-01T05:04:44.892Z,9.39
2023-04-01T05:07:47.015Z,9.50
2023-04-01T05:10:50.059Z,9.58
2023-04-01T05:13:52.795Z,9.88
2023-04-01T05:16:55.724Z,10.01
2023-04-01T05:19:58.079Z,10.25
2023-04-01T05:23:00.871Z,11.18
2023-04-01T05:26:10.690Z,12.51
2023-04-01T05:29:13.406Z,13.56
2023-04-01T05:32:16.215Z,14.15
2023-04-01T05:35:18.702Z,14.65
2023-04-01T05:38:23.843Z,14.50
2023-04-01T05:41:26.294Z,15.21
2023-04-01T05:44:28.712Z,15.05
2023-04-01T05:47:35.331Z,14.71
2023-04-01T05:50:37.794Z,14.67
2023-04-01T05:53:40.818Z,14.94
2023-04-01T05:56:42.884Z,15.09
2023-04-01T05:59:45.756Z,15.06
2023-04-01T06:02:48.590Z,15.31
2023-04-01T06:05:51.412Z,15.82
2023-04-01T06:08:54.181Z,15.91
2023-04-01T06:12:02.734Z,15.85
2023-04-01T06:15:11.935Z,15.54
2023-04-01T06:18:33.296Z,15.24
2023-04-01T06:21:46.229Z,15.00
2023-04-01T06:24:51.644Z,14.12
2023-04-01T06:27:56.879Z,14.03
2023-04-01T06:31:17.748Z,13.91
2023-04-01T06:34:23.173Z,14.23
2023-04-01T06:37:44.915Z,14.57
2023-04-01T06:40:47.336Z,15.16
2023-04-01T06:43:58.871Z,15.76
2023-04-01T06:47:06.978Z,15.92
2023-04-01T06:50:29.258Z,16.55
2023-04-01T06:53:57.211Z,16.74
2023-04-01T06:57:14.969Z,17.35
2023-04-01T07:00:23.174Z,17.71
2023-04-01T07:03:34.870Z,17.51
2023-04-01T07:06:49.070Z,17.34
2023-04-01T07:09:56.366Z,17.56
2023-04-01T07:13:04.110Z,17.90
2023-04-01T07:16:27.970Z,18.26
2023-04-01T07:19:38.868Z,18.67
2023-04-01T07:22:44.610Z,18.44
2023-04-01T07:25:48.979Z,18.63
2023-04-01T07:28:52.971Z,19.20
2023-04-01T07:31:56.328Z,19.00
2023-04-01T07:35:14.364Z,18.85
2023-04-01T07:38:25.054Z,18.81
2023-04-01T07:41:38.743Z,18.86
2023-04-01T07:44:51.556Z,18.64
2023-04-01T07:47:53.918Z,17.75
2023-04-01T07:50:56.163Z,17.56
2023-04-01T07:54:13.205Z,17.33
2023-04-01T07:57:19.894Z,17.02
2023-04-01T08:00:28.959Z,17.18
2023-04-01T08:03:47.037Z,17.08
2023-04-01T08:07:00.544Z,17.23
2023-04-01T08:10:11.967Z,16.85
2023-04-01T08:13:37.068Z,16.93
2023-04-01T08:16:51.582Z,16.60
2023-04-01T08:20:01.543Z,16.50
2023-04-01T08:23:04.880Z,16.37
2023-04-01T08:26:19.238Z,16.31
2023-04-01T08:29:32.863Z,16.38
2023-04-01T08:32:40.885Z,16.35
2023-04-01T08:35:51.348Z,16.25
2023-04-01T08:38:59.031Z,16.35
2023-04-01T08:42:27.627Z,16.43
2023-04-01T08:45:37.104Z,16.53
2023-04-01T08:48:55.381Z,15.96
2023-04-01T08:52:00.489Z,16.10
2023-04-01T08:55:25.993Z,16.18
2023-04-01T08:58:42.359Z,16.41
2023-04-01T09:02:05.716Z,16.38
2023-04-01T09:05:27.468Z,16.21
2023-04-01T09:08:33.401Z,16.17
2023-04-01T09:11:44.869Z,15.62
2023-04-01T09:14:52.613Z,15.93
2023-04-01T09:18:13.597Z,15.96
2023-04-01T09:21:31.539Z,16.17
2023-04-01T09:24:43.850Z,16.04
2023-04-01T09:27:46.331Z,15.73
2023-04-01T09:31:07.604Z,15.35
2023-04-01T09:34:12.400Z,15.39
2023-04-01T09:37:39.040Z,15.01
2023-04-01T09:40:52.045Z,15.15
2023-04-01T09:44:13.021Z,14.67
2023-04-01T09:47:36.834Z,14.63
2023-04-01T09:50:42.220Z,14.63
2023-04-01T09:54:10.183Z,14.67
2023-04-01T09:57:18.612Z,14.67
2023-04-01T10:00:31.542Z,14.41
2023-04-01T10:03:40.421Z,14.46
2023-04-01T10:07:08.722Z,14.51
2023-04-01T10:10:23.621Z,14.47
2023-04-01T10:13:34.515Z,14.51
2023-04-01T10:16:57.570Z,14.45
2023-04-01T10:20:10.250Z,14.69
2023-04-01T10:23:19.374Z,14.52
2023-04-01T10:26:36.788Z,14.46
2023-04-01T10:29:40.556Z,14.40
2023-04-01T10:32:48.940Z,14.38
2023-04-01T10:36:10.589Z,14.53
2023-04-01T10:39:20.188Z,14.69
2023-04-01T10:42:33.113Z,15.42
2023-04-01T10:45:41.054Z,15.70
2023-04-01T10:48:59.047Z,15.52
2023-04-01T10:52:04.262Z,15.44
2023-04-01T10:55:16.625Z,15.62
2023-04-01T10:58:26.040Z,15.67
2023-04-01T11:01:30.497Z,15.66
2023-04-01T11:04:41.462Z,15.66
2023-04-01T11:08:06.990Z,15.66
2023-04-01T11:11:29.081Z,15.53
2023-04-01T11:14:46.472Z,15.28
2023-04-01T11:17:57.767Z,15.32
2023-04-01T11:21:00.363Z,15.54
2023-04-01T11:24:14.106Z,15.23
2023-04-01T11:27:31.980Z,15.31
2023-04-01T11:30:37.540Z,15.60
2023-04-01T11:33:50.512Z,15.75
2023-04-01T11:36:52.999Z,16.14
2023-04-01T11:39:57.121Z,16.16
2023-04-01T11:43:17.205Z,16.08
2023-04-01T11:46:43.000Z,16.20
2023-04-01T11:50:04.075Z,15.80
2023-04-01T11:53:16.273Z,15.28
2023-04-01T11:56:41.170Z,14.86
2023-04-01T11:59:53.189Z,14.77
2023-04-01T12:03:17.541Z,14.99
2023-04-01T12:06:39.036Z,15.11
2023-04-01T12:09:59.864Z,15.01
2023-04-01T12:13:24.048Z,15.12
2023-04-01T12:16:32.993Z,15.35
2023-04-01T12:19:54.220Z,15.63
2023-04-01T12:23:05.657Z,15.88
2023-04-01T12:26:15.381Z,15.91
2023-04-01T12:29:26.685Z,16.26
2023-04-01T12:32:46.420Z,16.28
2023-04-01T12:36:14.876Z,16.15
2023-04-01T12:39:32.660Z,16.23
2023-04-01T12:42:34.679Z,16.24
2023-04-01T12:45:37.862Z,16.48
2023-04-01T12:48:40.111Z,16.69
2023-04-01T12:52:05.874Z,16.65
2023-04-01T12:55:07.864Z,16.72
2023-04-01T12:58:37.147Z,16.66
2023-04-01T13:01:48.273Z,16.37
2023-04-01T13:05:09.456Z,16.66
2023-04-01T13:08:11.517Z,17.07
2023-04-01T13:11:20.236Z,17.08
2023-04-01T13:14:31.521Z,17.19
2023-04-01T13:17:40.967Z,17.18
2023-04-01T13:20:48.987Z,17.03
2023-04-01T13:24:03.770Z,16.69
2023-04-01T13:27:12.084Z,16.95
2023-04-01T13:30:28.566Z,16.71
2023-04-01T13:33:56.096Z,16.53
2023-04-01T13:37:17.053Z,16.49
2023-04-01T13:40:24.862Z,16.59
2023-04-01T13:43:32.273Z,16.33
2023-04-01T13:46:41.053Z,16.16
2023-04-01T13:49:48.020Z,15.90
2023-04-01T13:53:08.861Z,15.90
2023-04-01T13:56:11.182Z,15.59
2023-04-01T13:59:13.221Z,15.31
2023-04-01T14:02:28.252Z,14.92
2023-04-01T14:05:49.530Z,14.80
2023-04-01T14:09:09.838Z,14.82
2023-04-01T14:12:21.190Z,14.76
2023-04-01T14:15:26.272Z,14.87
2023-04-01T14:18:31.443Z,14.90
2023-04-01T14:21:40.643Z,14.76
2023-04-01T14:24:42.944Z,14.91
2023-04-01T14:27:53.285Z,15.01
2023-04-01T14:31:14.545Z,15.02
2023-04-01T14:34:27.144Z,15.04
2023-04-01T14:37:31.095Z,14.97
2023-04-01T14:40:39.299Z,14.99
2023-04-01T14:44:00.363Z,14.84
2023-04-01T14:47:23.928Z,14.90
2023-04-01T14:50:29.476Z,14.95
2023-04-01T14:53:34.730Z,14.90
2023-04-01T14:56:40.353Z,14.96
2023-04-01T15:00:03.095Z,15.25
2023-04-01T15:03:13.567Z,15.46
2023-04-01T15:06:34.587Z,15.78
2023-04-01T15:09:40.004Z,15.76
2023-04-01T15:12:48.062Z,15.55
2023-04-01T15:15:50.689Z,15.33
2023-04-01T15:19:05.020Z,15.15
2023-04-01T15:22:13.364Z,15.11
2023-04-01T15:25:15.839Z,15.22
2023-04-01T15:28:27.318Z,15.54
2023-04-01T15:31:35.645Z,15.72
2023-04-01T15:34:47.026Z,15.66
2023-04-01T15:38:07.784Z,15.83
2023-04-01T15:41:29.334Z,15.77
2023-04-01T15:44:31.443Z,15.80
2023-04-01T15:47:46.715Z,15.80
2023-04-01T15:51:12.574Z,15.50
2023-04-01T15:54:33.500Z,15.40
2023-04-01T15:57:35.529Z,15.45
2023-04-01T16:00:56.747Z,15.38
2023-04-01T16:04:06.948Z,15.44
2023-04-01T16:07:32.078Z,15.63
2023-04-01T16:10:57.771Z,15.40
2023-04-01T16:14:06.385Z,15.44
2023-04-01T16:17:28.704Z,15.40
2023-04-01T16:20:34.214Z,15.41
2023-04-01T16:23:55.973Z,15.39
2023-04-01T16:27:04.578Z,15.32
2023-04-01T16:30:19.478Z,15.28
2023-04-01T16:33:40.359Z,15.25
2023-04-01T16:36:51.577Z,15.09
2023-04-01T16:40:02.355Z,14.99
2023-04-01T16:43:07.738Z,14.91
2023-04-01T16:46:16.032Z,14.77
2023-04-01T16:49:25.752Z,14.79
2023-04-01T16:52:33.971Z,14.70
2023-04-01T16:56:01.525Z,14.60
2023-04-01T16:59:08.511Z,14.43
2023-04-01T17:02:16.863Z,14.22
2023-04-01T17:05:19.535Z,14.06
2023-04-01T17:08:34.261Z,13.97
2023-04-01T17:11:56.589Z,13.79
2023-04-01T17:15:21.410Z,13.66
2023-04-01T17:18:41.893Z,13.62
2023-04-01T17:22:02.420Z,13.56
2023-04-01T17:25:10.609Z,13.42
2023-04-01T17:28:13.005Z,13.45
2023-04-01T17:31:27.154Z,13.24
2023-04-01T17:34:40.873Z,13.10
2023-04-01T17:38:01.402Z,13.03
2023-04-01T17:41:12.552Z,12.97
2023-04-01T17:44:20.605Z,12.87
2023-04-01T17:47:28.795Z,12.80
2023-04-01T17:50:45.667Z,12.70
2023-04-01T17:53:57.238Z,12.65
2023-04-01T17:57:18.288Z,12.55
2023-04-01T18:00:53.002Z,12.43
2023-04-01T18:03:59.222Z,12.35
2023-04-01T18:07:04.465Z,12.26
2023-04-01T18:10:25.780Z,12.25
2023-04-01T18:13:46.721Z,12.14
2023-04-01T18:17:01.059Z,12.07
2023-04-01T18:20:12.452Z,12.03
2023-04-01T18:23:18.270Z,12.00
2023-04-01T18:26:20.680Z,11.95
2023-04-01T18:29:54.871Z,11.89
2023-04-01T18:33:01.205Z,11.86
2023-04-01T18:36:22.785Z,11.79
2023-04-01T18:39:40.256Z,11.67
2023-04-01T18:42:53.931Z,11.57
2023-04-01T18:45:59.519Z,11.57
2023-04-01T18:49:09.015Z,11.35
2023-04-01T18:52:20.649Z,11.47
2023-04-01T18:55:44.070Z,11.30
2023-04-01T18:58:49.166Z,11.21
2023-04-01T19:02:00.912Z,11.14
2023-04-01T19:05:20.929Z,11.15
2023-04-01T19:08:34.660Z,11.08
2023-04-01T19:11:50.778Z,11.06
2023-04-01T19:15:13.114Z,10.85
2023-04-01T19:18:44.082Z,10.88
2023-04-01T19:21:53.947Z,10.88
2023-04-01T19:24:59.154Z,10.76
2023-04-01T19:28:21.757Z,10.71
2023-04-01T19:31:33.029Z,10.69
2023-04-01T19:34:38.538Z,10.55
2023-04-01T19:37:45.893Z,10.62
2023-04-01T19:41:11.702Z,10.46
2023-04-01T19:44:13.701Z,10.44
2023-04-01T19:47:41.129Z,10.38
2023-04-01T19:50:54.057Z,10.44
2023-04-01T19:54:02.571Z,10.32
2023-04-01T19:57:21.581Z,10.33
2023-04-01T20:00:31.080Z,10.25
2023-04-01T20:03:47.408Z,10.24
2023-04-01T20:07:16.816Z,10.02
2023-04-01T20:10:26.489Z,9.94
2023-04-01T20:13:34.734Z,9.90
2023-04-01T20:16:51.895Z,9.89
2023-04-01T20:20:18.932Z,9.86
2023-04-01T20:23:36.395Z,9.83
2023-04-01T20:26:40.820Z,9.81
2023-04-01T20:29:46.890Z,9.69
2023-04-01T20:33:01.819Z,9.54
2023-04-01T20:36:09.855Z,9.51
2023-04-01T20:39:24.389Z,9.52
2023-04-01T20:42:47.332Z,9.43
2023-04-01T20:45:57.408Z,9.30
2023-04-01T20:49:15.762Z,9.26
2023-04-01T20:52:24.012Z,9.16
2023-04-01T20:55:56.246Z,9.18
2023-04-01T20:59:16.864Z,9.25
2023-04-01T21:02:25.726Z,9.26
2023-04-01T21:05:40.048Z,9.20
2023-04-01T21:09:04.407Z,9.24
2023-04-01T21:12:06.447Z,9.22
2023-04-01T21:15:12.060Z,9.22
2023-04-01T21:18:33.086Z,9.16
2023-04-01T21:22:00.721Z,8.99
2023-04-01T21:25:05.805Z,9.09
2023-04-01T21:28:08.174Z,9.11
2023-04-01T21:31:26.699Z,9.16
2023-04-01T21:34:47.661Z,9.20
2023-04-01T21:37:58.817Z,9.12
2023-04-01T21:41:04.425Z,9.34
2023-04-01T21:44:19.749Z,9.43
2023-04-01T21:47:41.093Z,9.33
2023-04-01T21:50:43.120Z,9.38
2023-04-01T21:53:57.845Z,9.41
2023-04-01T21:57:14.385Z,9.32
2023-04-01T22:00:21.255Z,9.36
2023-04-01T22:03:27.279Z,9.33
2023-04-01T22:06:42.138Z,9.20
2023-04-01T22:09:58.053Z,9.27
2023-04-01T22:13:09.396Z,9.12
2023-04-01T22:16:11.833Z,9.27
2023-04-01T22:19:29.252Z,9.22
2023-04-01T22:22:34.702Z,9.25
2023-04-01T22:25:58.136Z,9.34
2023-04-01T22:29:13.576Z,9.36
2023-04-01T22:32:20.679Z,9.37
2023-04-01T22:35:26.187Z,9.24
2023-04-01T22:38:45.480Z,9.22
2023-04-01T22:42:06.768Z,9.25
2023-04-01T22:45:12.887Z,9.23
2023-04-01T22:48:18.857Z,9.19
2023-04-01T22:51:45.711Z,9.28
2023-04-01T22:54:54.071Z,9.29
2023-04-01T22:58:01.423Z,9.33
2023-04-01T23:01:08.375Z,8.94
2023-04-01T23:04:12.619Z,9.13
2023-04-01T23:07:38.058Z,9.19
2023-04-01T23:10:44.973Z,9.40
2023-04-01T23:13:53.900Z,9.49
2023-04-01T23:16:59.081Z,9.28
2023-04-01T23:20:16.253Z,9.22
2023-04-01T23:23:41.581Z,8.95
2023-04-01T23:26:49.260Z,9.04
2023-04-01T23:29:52.085Z,8.95
2023-04-01T23:32:54.540Z,8.77
2023-04-01T23:36:06.400Z,8.88
2023-04-01T23:39:18.144Z,9.04
2023-04-01T23:42:25.630Z,9.09
2023-04-01T23:45:28.208Z,9.15
2023-04-01T23:48:33.253Z,9.14
2023-04-01T23:51:40.541Z,9.20
2023-04-01T23:54:44.633Z,9.25
2023-04-01T23:58:02.828Z,9.24
